Time;durP1;ratioP1;P1;durP2;ratioP2;P2;SDS_P1;SDS_P2;PMS_P1;PMS_P2;Temp;Humidity;BMP_temperature;BMP_pressure;BME280_temperature;BME280_humidity;BME280_pressure;Samples;Min_cycle;Max_cycle;Signal;HPM_P1;HPM_P2
2023/05/15 00:00:14;;;;;;;20.42;14.88;;;12.80;97.00;;;;;;5064341;28;20025;-92
2023/05/15 00:02:40;;;;;;;19.90;13.60;;;12.80;97.00;;;;;;5064233;28;20052;-92
2023/05/15 00:05:07;;;;;;;24.70;15.50;;;12.80;97.10;;;;;;5046490;28;20033;-91
2023/05/15 00:07:33;;;;;;;24.15;14.73;;;12.80;97.10;;;;;;5064962;28;20064;-91
2023/05/15 00:09:59;;;;;;;20.20;13.60;;;12.70;97.10;;;;;;5050522;28;20033;-92
2023/05/15 00:12:25;;;;;;;18.58;13.55;;;12.70;97.10;;;;;;5054648;28;20111;-90
2023/05/15 00:14:50;;;;;;;20.67;14.23;;;12.70;97.20;;;;;;5091398;28;20047;-91
2023/05/15 00:17:16;;;;;;;25.65;14.18;;;12.70;97.40;;;;;;5055928;28;20017;-89
2023/05/15 00:19:42;;;;;;;24.88;15.23;;;12.70;97.20;;;;;;5069209;28;20017;-90
2023/05/15 00:22:10;;;;;;;24.50;15.60;;;12.70;97.40;;;;;;5065340;28;20461;-90
2023/05/15 00:24:35;;;;;;;23.00;15.00;;;12.60;97.30;;;;;;5061082;28;20021;-92
2023/05/15 00:27:01;;;;;;;21.88;14.15;;;12.60;97.50;;;;;;5055767;28;20451;-92
2023/05/15 00:29:27;;;;;;;24.05;14.57;;;12.60;97.60;;;;;;5055110;28;20025;-93
2023/05/15 00:31:52;;;;;;;21.90;14.75;;;12.60;97.60;;;;;;5072123;28;20078;-92
2023/05/15 00:34:19;;;;;;;21.95;14.02;;;12.60;97.90;;;;;;5054267;28;20013;-92
2023/05/15 00:36:44;;;;;;;20.10;14.00;;;12.50;97.80;;;;;;5055048;28;20024;-90
2023/05/15 00:39:13;;;;;;;17.83;13.65;;;12.50;97.90;;;;;;5055843;28;20021;-93
2023/05/15 00:41:40;;;;;;;19.20;14.88;;;12.50;97.80;;;;;;5038832;28;20486;-92
2023/05/15 00:44:06;;;;;;;20.55;14.85;;;12.50;97.80;;;;;;5054039;28;20017;-92
2023/05/15 00:46:35;;;;;;;22.00;14.98;;;12.50;97.90;;;;;;5037970;28;20069;-93
2023/05/15 00:49:03;;;;;;;23.10;14.27;;;12.50;97.90;;;;;;5037989;28;20025;-91
2023/05/15 00:51:29;;;;;;;21.17;13.45;;;12.50;97.80;;;;;;5055413;28;20495;-88
2023/05/15 00:53:55;;;;;;;21.30;14.07;;;12.50;97.80;;;;;;5054992;28;20035;-90
2023/05/15 00:56:21;;;;;;;20.38;14.75;;;12.50;97.80;;;;;;5037681;28;20108;-89
2023/05/15 00:58:49;;;;;;;20.42;14.27;;;12.50;97.80;;;;;;5055744;28;20043;-92
2023/05/15 01:01:16;;;;;;;21.88;13.60;;;12.40;97.80;;;;;;5038106;28;20041;-90
2023/05/15 01:03:42;;;;;;;20.90;14.10;;;12.40;97.80;;;;;;5054288;28;20116;-91
2023/05/15 01:06:08;;;;;;;19.10;13.95;;;12.40;97.90;;;;;;5055545;28;20116;-89
2023/05/15 01:08:41;;;;;;;25.42;16.60;;;12.40;98.30;;;;;;5037999;28;20083;-92
2023/05/15 01:11:07;;;;;;;21.00;15.00;;;12.40;98.70;;;;;;5054678;28;20469;-92
2023/05/15 01:13:33;;;;;;;22.77;16.17;;;12.30;98.80;;;;;;5055389;28;20368;-91
2023/05/15 01:15:59;;;;;;;23.55;16.08;;;12.30;99.80;;;;;;5055018;28;20029;-92
2023/05/15 01:18:30;;;;;;;21.55;15.10;;;12.30;99.90;;;;;;5054196;28;20024;-90
2023/05/15 01:20:56;;;;;;;21.92;15.48;;;12.20;99.80;;;;;;5054234;28;20025;-89
2023/05/15 01:24:06;;;;;;;22.95;15.55;;;12.20;99.90;;;;;;5054003;28;20025;-91
2023/05/15 01:26:56;;;;;;;20.95;15.93;;;12.20;99.90;;;;;;5043086;28;20029;-92
2023/05/15 01:29:43;;;;;;;21.77;14.18;;;12.20;99.90;;;;;;5053973;28;20029;-90
2023/05/15 01:32:15;;;;;;;21.40;15.20;;;12.10;99.90;;;;;;5053880;28;20056;-92
2023/05/15 01:34:52;;;;;;;22.52;15.45;;;12.10;99.90;;;;;;5053694;28;20042;-90
2023/05/15 01:37:23;;;;;;;21.00;14.20;;;12.10;99.90;;;;;;5053606;28;20021;-88
2023/05/15 01:39:53;;;;;;;22.38;12.85;;;12.00;99.90;;;;;;5053492;28;20017;-90
2023/05/15 01:42:19;;;;;;;22.90;15.00;;;12.00;99.90;;;;;;5038100;28;20029;-90
2023/05/15 01:44:54;;;;;;;23.17;14.88;;;12.00;99.90;;;;;;5037077;28;20021;-90
2023/05/15 01:47:46;;;;;;;28.30;16.73;;;12.00;99.90;;;;;;5038274;28;20127;-88
2023/05/15 01:50:14;;;;;;;26.00;15.25;;;12.00;99.90;;;;;;5068966;28;20009;-89
2023/05/15 01:52:53;;;;;;;26.52;15.68;;;12.00;99.90;;;;;;5068528;28;20032;-91
2023/05/15 01:55:21;;;;;;;23.13;15.75;;;11.90;99.90;;;;;;5056155;28;20025;-92
2023/05/15 01:57:49;;;;;;;21.20;15.50;;;11.90;99.90;;;;;;5059180;28;20025;-92
2023/05/15 02:00:16;;;;;;;21.33;15.38;;;11.90;99.90;;;;;;5058240;28;20017;-92
2023/05/15 02:02:43;;;;;;;22.73;14.50;;;11.90;99.90;;;;;;5057959;28;20021;-92
2023/05/15 02:05:09;;;;;;;23.85;15.25;;;11.90;99.90;;;;;;5057629;28;20029;-92
2023/05/15 02:07:36;;;;;;;24.67;17.60;;;11.90;99.90;;;;;;5059228;28;20033;-91
2023/05/15 02:10:02;;;;;;;27.17;17.30;;;11.90;99.90;;;;;;5057371;28;20024;-89
2023/05/15 02:12:29;;;;;;;23.35;16.13;;;11.80;99.90;;;;;;5074789;28;20029;-92
2023/05/15 02:14:58;;;;;;;21.63;16.20;;;11.80;99.90;;;;;;5057611;28;20032;-91
2023/05/15 02:17:24;;;;;;;24.48;16.88;;;11.80;99.90;;;;;;5058030;28;20059;-91
2023/05/15 02:19:50;;;;;;;22.30;16.52;;;11.80;99.90;;;;;;5058508;28;20028;-92
2023/05/15 02:22:15;;;;;;;25.60;16.08;;;11.70;99.90;;;;;;5057613;28;20029;-92
2023/05/15 02:24:41;;;;;;;21.60;14.25;;;11.80;99.90;;;;;;5057663;28;20017;-93
2023/05/15 02:27:21;;;;;;;21.83;15.80;;;11.80;99.90;;;;;;5057315;28;20040;-91
2023/05/15 02:30:14;;;;;;;22.48;15.55;;;11.80;99.90;;;;;;5059531;28;20021;-91
2023/05/15 02:33:03;;;;;;;27.95;17.55;;;11.80;99.90;;;;;;5059043;28;20416;-90
2023/05/15 02:35:46;;;;;;;28.27;17.97;;;11.70;99.90;;;;;;5059090;28;20021;-90
2023/05/15 02:38:15;;;;;;;25.10;17.10;;;11.70;99.90;;;;;;5056990;28;20017;-90
2023/05/15 02:40:44;;;;;;;27.93;17.77;;;11.70;99.90;;;;;;5056683;28;20024;-91
2023/05/15 02:43:11;;;;;;;28.90;18.60;;;11.70;99.90;;;;;;5057551;28;20017;-92
2023/05/15 02:45:38;;;;;;;32.22;18.52;;;11.70;99.90;;;;;;5056746;28;20475;-91
2023/05/15 02:48:05;;;;;;;26.67;17.30;;;11.70;99.90;;;;;;5056613;28;20045;-91
2023/05/15 02:50:31;;;;;;;33.13;17.73;;;11.70;99.90;;;;;;5055869;28;20078;-91
2023/05/15 02:53:08;;;;;;;25.80;17.90;;;11.60;99.90;;;;;;5039971;28;20025;-90
2023/05/15 02:55:34;;;;;;;28.15;18.08;;;11.60;99.90;;;;;;5057386;28;20028;-90
2023/05/15 02:58:02;;;;;;;27.00;17.48;;;11.60;99.90;;;;;;5056294;28;20025;-89
2023/05/15 03:00:28;;;;;;;29.85;19.27;;;11.60;99.90;;;;;;5057776;28;20024;-89
2023/05/15 03:02:53;;;;;;;32.80;19.52;;;11.60;99.90;;;;;;5056514;28;20025;-91
2023/05/15 03:05:19;;;;;;;28.35;18.40;;;11.60;99.90;;;;;;5057010;28;20112;-91
2023/05/15 03:07:45;;;;;;;29.48;20.25;;;11.60;99.90;;;;;;5055297;28;20089;-91
2023/05/15 03:10:11;;;;;;;30.98;20.13;;;11.60;99.90;;;;;;5056667;28;20017;-90
2023/05/15 03:12:37;;;;;;;32.43;21.23;;;11.50;99.90;;;;;;5056941;28;20035;-87
2023/05/15 03:15:03;;;;;;;31.67;20.70;;;11.50;99.90;;;;;;5040262;28;20029;-92
2023/05/15 03:17:29;;;;;;;39.10;25.40;;;11.40;99.90;;;;;;5073354;28;20033;-90
2023/05/15 03:19:55;;;;;;;41.40;25.00;;;11.40;99.90;;;;;;5056283;28;20071;-89
2023/05/15 03:22:20;;;;;;;51.57;25.83;;;11.30;99.90;;;;;;5039208;28;20021;-91
2023/05/15 03:24:46;;;;;;;71.67;26.40;;;11.30;99.90;;;;;;5072401;28;20032;-90
2023/05/15 03:27:12;;;;;;;73.40;27.13;;;11.20;99.90;;;;;;5055828;28;20037;-89
2023/05/15 03:29:38;;;;;;;56.07;26.10;;;11.20;99.90;;;;;;5055425;28;20461;-91
2023/05/15 03:32:03;;;;;;;44.17;23.97;;;11.20;99.90;;;;;;5056649;28;20028;-91
2023/05/15 03:34:29;;;;;;;44.80;24.20;;;11.20;99.90;;;;;;5039260;28;20025;-92
2023/05/15 03:36:55;;;;;;;54.17;24.43;;;11.30;99.90;;;;;;5056182;28;20033;-92
2023/05/15 03:39:20;;;;;;;44.97;25.63;;;11.30;99.90;;;;;;5055591;28;20025;-92
2023/05/15 03:41:46;;;;;;;53.27;26.87;;;11.30;99.90;;;;;;5055096;28;20040;-91
2023/05/15 03:44:12;;;;;;;51.23;28.73;;;11.30;99.90;;;;;;5039196;28;20111;-90
2023/05/15 03:46:37;;;;;;;50.73;29.90;;;11.30;99.90;;;;;;5055201;28;20036;-91
2023/05/15 03:49:03;;;;;;;46.87;27.50;;;11.40;99.90;;;;;;5056606;28;20025;-93
2023/05/15 03:51:29;;;;;;;44.63;26.97;;;11.40;99.90;;;;;;5056259;28;20120;-93
2023/05/15 03:53:54;;;;;;;41.72;25.27;;;11.40;99.90;;;;;;5056221;28;20059;-92
2023/05/15 03:56:20;;;;;;;45.17;26.02;;;11.40;99.90;;;;;;5057730;28;20128;-92
2023/05/15 03:58:46;;;;;;;49.92;28.40;;;11.50;99.90;;;;;;5056292;28;20045;-94
2023/05/15 04:01:11;;;;;;;41.83;25.50;;;11.50;99.90;;;;;;5038865;28;20025;-91
2023/05/15 04:03:37;;;;;;;45.17;27.40;;;11.60;99.90;;;;;;5055831;28;20021;-88
2023/05/15 04:06:03;;;;;;;45.53;26.73;;;11.60;99.90;;;;;;5056197;28;20052;-93
2023/05/15 04:08:28;;;;;;;44.33;26.25;;;11.60;99.90;;;;;;5070336;28;20040;-92
2023/05/15 04:10:54;;;;;;;44.42;26.67;;;11.60;99.90;;;;;;5074998;28;20009;-90
2023/05/15 04:13:20;;;;;;;42.13;26.52;;;11.60;99.90;;;;;;5069340;28;20411;-93
2023/05/15 04:15:45;;;;;;;39.42;25.52;;;11.60;99.90;;;;;;5059341;28;20081;-91
2023/05/15 04:18:11;;;;;;;41.88;25.70;;;11.60;99.90;;;;;;5057543;28;20023;-93
2023/05/15 04:20:37;;;;;;;39.97;25.23;;;11.60;99.90;;;;;;5072447;28;20029;-92
2023/05/15 04:23:05;;;;;;;43.92;26.05;;;11.60;99.90;;;;;;5054961;28;20074;-91
2023/05/15 04:25:31;;;;;;;41.35;26.23;;;11.60;99.90;;;;;;5053749;28;20024;-90
2023/05/15 04:27:57;;;;;;;44.20;25.25;;;11.60;99.90;;;;;;5069027;28;20033;-91
2023/05/15 04:30:23;;;;;;;40.73;24.13;;;11.60;99.90;;;;;;5063599;28;20021;-92
2023/05/15 04:32:50;;;;;;;37.75;24.77;;;11.60;99.90;;;;;;5028359;28;20032;-94
2023/05/15 04:35:16;;;;;;;38.13;23.83;;;11.60;99.90;;;;;;5038433;28;20032;-94
2023/05/15 04:37:47;;;;;;;39.60;25.38;;;11.50;99.90;;;;;;5024858;28;20473;-91
2023/05/15 04:40:15;;;;;;;39.23;24.23;;;11.60;99.90;;;;;;5035434;28;20014;-91
2023/05/15 04:42:40;;;;;;;38.00;23.88;;;11.60;99.90;;;;;;5018050;28;20044;-91
2023/05/15 04:45:08;;;;;;;43.05;25.42;;;11.60;99.90;;;;;;5037347;28;20450;-92
2023/05/15 04:47:34;;;;;;;39.38;23.15;;;11.60;99.90;;;;;;5036547;28;20045;-93
2023/05/15 04:49:59;;;;;;;38.53;24.70;;;11.60;99.90;;;;;;5020066;28;20072;-94
2023/05/15 04:52:25;;;;;;;41.85;25.30;;;11.60;99.90;;;;;;5019270;28;20052;-92
2023/05/15 04:54:52;;;;;;;38.95;24.52;;;11.70;99.90;;;;;;5035659;28;20099;-93
2023/05/15 04:57:18;;;;;;;35.17;23.33;;;11.70;99.90;;;;;;5019499;28;20132;-94
2023/05/15 04:59:43;;;;;;;43.70;27.15;;;11.70;99.90;;;;;;5042568;28;20029;-92
2023/05/15 05:02:12;;;;;;;44.88;26.48;;;11.70;99.90;;;;;;5055459;28;20052;-94
2023/05/15 05:04:40;;;;;;;40.42;26.02;;;11.70;99.90;;;;;;5057411;28;20104;-90
2023/05/15 05:07:06;;;;;;;37.45;25.60;;;11.70;99.90;;;;;;5036571;28;20048;-87
2023/05/15 05:09:35;;;;;;;41.25;24.98;;;11.80;99.90;;;;;;5036204;28;20063;-89
2023/05/15 05:12:03;;;;;;;39.63;24.30;;;11.80;99.90;;;;;;5052941;28;20025;-88
2023/05/15 05:14:30;;;;;;;44.75;25.40;;;11.80;99.90;;;;;;5036555;28;20017;-90
2023/05/15 05:16:56;;;;;;;38.30;24.85;;;11.80;99.90;;;;;;5036063;28;20032;-88
2023/05/15 05:19:21;;;;;;;36.80;25.23;;;11.80;99.90;;;;;;5052736;28;20376;-88
2023/05/15 05:21:47;;;;;;;34.90;23.48;;;11.80;99.90;;;;;;5035812;28;20037;-89
2023/05/15 05:24:13;;;;;;;37.20;24.73;;;11.80;99.90;;;;;;5017385;28;20071;-88
2023/05/15 05:26:43;;;;;;;33.85;22.23;;;11.80;99.90;;;;;;5052236;28;20067;-89
2023/05/15 05:29:09;;;;;;;33.85;21.92;;;11.90;99.90;;;;;;5053121;28;20465;-89
2023/05/15 05:31:35;;;;;;;32.47;21.77;;;11.90;99.90;;;;;;5053416;28;20028;-87
2023/05/15 05:34:00;;;;;;;33.17;22.30;;;11.90;99.90;;;;;;5026986;28;20018;-90
2023/05/15 05:36:26;;;;;;;31.92;21.02;;;12.00;99.90;;;;;;5019268;28;20020;-88
2023/05/15 05:38:52;;;;;;;26.65;19.02;;;12.00;99.90;;;;;;5051473;28;20031;-86
2023/05/15 05:41:17;;;;;;;29.83;21.35;;;12.00;99.90;;;;;;5028661;28;20116;-88
2023/05/15 05:43:43;;;;;;;33.42;22.63;;;12.00;99.90;;;;;;5019535;28;20024;-87
2023/05/15 05:46:09;;;;;;;36.70;23.52;;;11.90;99.90;;;;;;5061638;28;20021;-88
2023/05/15 05:48:35;;;;;;;30.08;21.35;;;11.90;99.90;;;;;;5053352;28;20048;-87
2023/05/15 05:51:01;;;;;;;31.30;20.40;;;11.90;99.90;;;;;;5052835;28;20032;-86
2023/05/15 05:53:30;;;;;;;34.78;21.95;;;12.00;99.90;;;;;;5053500;28;20017;-88
2023/05/15 05:55:56;;;;;;;30.08;20.45;;;12.00;99.90;;;;;;5037762;28;20033;-87
2023/05/15 05:58:21;;;;;;;31.35;21.80;;;12.00;99.90;;;;;;5041195;28;20033;-87
2023/05/15 06:00:47;;;;;;;31.98;20.92;;;12.10;99.90;;;;;;5054096;28;20031;-86
2023/05/15 06:03:13;;;;;;;30.88;21.20;;;12.10;99.90;;;;;;5072814;28;20044;-87
2023/05/15 06:05:39;;;;;;;26.83;18.80;;;12.20;99.90;;;;;;5068475;28;20040;-88
2023/05/15 06:08:05;;;;;;;29.50;20.00;;;12.20;99.90;;;;;;5069056;28;20056;-86
2023/05/15 06:10:31;;;;;;;30.63;19.48;;;12.20;99.90;;;;;;5041973;28;20033;-87
2023/05/15 06:12:57;;;;;;;31.85;20.38;;;12.30;99.90;;;;;;5038860;28;20025;-81
2023/05/15 06:15:22;;;;;;;29.63;19.98;;;12.30;99.90;;;;;;5033143;28;20559;-85
2023/05/15 06:17:48;;;;;;;33.85;23.50;;;12.30;99.90;;;;;;5051365;28;20028;-82
2023/05/15 06:20:14;;;;;;;28.25;21.08;;;12.30;99.90;;;;;;5031350;28;20029;-86
2023/05/15 06:22:40;;;;;;;31.50;22.35;;;12.30;99.90;;;;;;5034487;28;20035;-83
2023/05/15 06:25:12;;;;;;;33.50;21.60;;;12.30;99.90;;;;;;5021078;28;20018;-84
2023/05/15 06:27:38;;;;;;;39.33;22.40;;;12.20;99.90;;;;;;5015852;28;20038;-86
2023/05/15 06:30:05;;;;;;;34.17;20.15;;;12.20;99.90;;;;;;5035996;28;20029;-87
2023/05/15 06:32:32;;;;;;;26.30;20.00;;;12.20;99.90;;;;;;5053476;28;20115;-88
2023/05/15 06:34:58;;;;;;;27.35;20.33;;;12.10;99.90;;;;;;5063776;28;20026;-87
2023/05/15 06:37:24;;;;;;;33.45;20.10;;;12.10;99.90;;;;;;5048532;28;20519;-86
2023/05/15 06:39:49;;;;;;;27.00;19.10;;;12.20;99.90;;;;;;5050008;28;20059;-85
2023/05/15 06:42:15;;;;;;;26.52;19.25;;;12.20;99.90;;;;;;5035834;28;20061;-85
2023/05/15 06:44:40;;;;;;;27.23;17.92;;;12.20;99.90;;;;;;5021696;28;20457;-84
2023/05/15 06:47:06;;;;;;;26.83;18.95;;;12.30;99.90;;;;;;5021143;28;20102;-82
2023/05/15 06:49:32;;;;;;;25.85;17.35;;;12.30;99.90;;;;;;5052736;28;20021;-82
2023/05/15 06:51:57;;;;;;;24.35;17.38;;;12.40;99.90;;;;;;5054446;28;20025;-84
2023/05/15 06:54:23;;;;;;;25.77;19.40;;;12.50;99.90;;;;;;5055986;28;20032;-84
2023/05/15 06:56:49;;;;;;;29.83;20.50;;;12.50;99.90;;;;;;5038124;28;20035;-81
2023/05/15 06:59:14;;;;;;;27.17;20.98;;;12.60;99.90;;;;;;5054541;28;20407;-82
2023/05/15 07:01:40;;;;;;;33.60;21.08;;;12.60;99.90;;;;;;5037667;28;20469;-84
2023/05/15 07:04:06;;;;;;;27.63;20.60;;;12.70;99.90;;;;;;5037512;28;20025;-82
2023/05/15 07:06:31;;;;;;;28.00;18.20;;;12.70;99.90;;;;;;5036311;28;20036;-84
2023/05/15 07:08:58;;;;;;;26.00;17.75;;;12.70;99.90;;;;;;5037810;28;20157;-81
2023/05/15 07:11:24;;;;;;;25.50;18.55;;;12.80;99.90;;;;;;5055004;28;20021;-80
2023/05/15 07:13:51;;;;;;;25.02;18.33;;;12.80;99.90;;;;;;5054804;28;20021;-83
2023/05/15 07:16:17;;;;;;;24.05;17.52;;;12.90;99.90;;;;;;5037124;28;20025;-82
2023/05/15 07:18:43;;;;;;;23.10;17.15;;;12.90;99.90;;;;;;5054582;28;20029;-86
2023/05/15 07:21:08;;;;;;;21.67;16.00;;;13.00;99.90;;;;;;5038183;28;20412;-87
2023/05/15 07:23:34;;;;;;;20.38;14.10;;;13.10;99.90;;;;;;5053983;28;20029;-82
2023/05/15 07:26:00;;;;;;;20.33;15.25;;;13.10;99.90;;;;;;5037046;28;20079;-83
2023/05/15 07:28:25;;;;;;;20.45;15.30;;;13.20;99.90;;;;;;5033707;28;20499;-83
2023/05/15 07:30:51;;;;;;;19.25;15.02;;;13.30;99.90;;;;;;5053748;28;20429;-83
2023/05/15 07:33:17;;;;;;;21.67;15.00;;;13.40;99.90;;;;;;5053451;28;20017;-84
2023/05/15 07:35:43;;;;;;;18.55;15.13;;;13.50;99.90;;;;;;5036665;28;20032;-80
2023/05/15 07:38:08;;;;;;;18.10;14.48;;;13.60;99.90;;;;;;5054474;28;20040;-81
2023/05/15 07:40:34;;;;;;;19.85;14.50;;;13.60;99.90;;;;;;5037131;28;20021;-83
2023/05/15 07:43:00;;;;;;;16.80;13.27;;;13.70;99.90;;;;;;5053572;28;20036;-83
2023/05/15 07:45:26;;;;;;;21.70;14.65;;;13.70;99.90;;;;;;5053432;28;20032;-83
2023/05/15 07:47:51;;;;;;;19.73;14.45;;;13.80;99.90;;;;;;5053298;28;20049;-83
2023/05/15 07:50:17;;;;;;;18.83;14.80;;;13.80;99.90;;;;;;5052973;28;20033;-82
2023/05/15 07:52:43;;;;;;;18.48;14.15;;;13.80;99.90;;;;;;5036568;28;20067;-82
2023/05/15 07:55:09;;;;;;;17.42;13.13;;;13.90;99.90;;;;;;5054532;28;20024;-83
2023/05/15 07:57:35;;;;;;;15.90;12.32;;;14.00;99.80;;;;;;5053275;28;20361;-83
2023/05/15 08:00:09;;;;;;;16.50;12.30;;;14.00;99.30;;;;;;5053650;28;20021;-83
2023/05/15 08:02:35;;;;;;;18.08;13.13;;;14.00;99.10;;;;;;5069010;28;20025;-83
2023/05/15 08:05:01;;;;;;;18.05;11.98;;;14.20;98.90;;;;;;5036129;28;20021;-84
2023/05/15 08:07:27;;;;;;;16.38;12.50;;;14.20;98.50;;;;;;5052765;28;20040;-82
2023/05/15 08:09:52;;;;;;;15.32;11.70;;;14.30;98.40;;;;;;5069789;28;20051;-83
2023/05/15 08:12:19;;;;;;;19.52;13.10;;;14.30;98.30;;;;;;5052809;28;20055;-83
2023/05/15 08:14:53;;;;;;;19.10;14.73;;;14.40;97.90;;;;;;5054280;28;20104;-84
2023/05/15 08:17:19;;;;;;;20.23;14.10;;;14.50;97.60;;;;;;5036454;28;20031;-83
2023/05/15 08:19:45;;;;;;;20.52;14.38;;;14.50;97.40;;;;;;5052387;28;20031;-84
2023/05/15 08:22:11;;;;;;;21.55;16.65;;;14.60;97.30;;;;;;5036319;28;20107;-83
2023/05/15 08:24:38;;;;;;;22.67;16.55;;;14.60;97.20;;;;;;5036595;28;20516;-87
2023/05/15 08:27:05;;;;;;;24.10;17.65;;;14.70;97.30;;;;;;5035979;28;20036;-83
2023/05/15 08:29:31;;;;;;;24.75;17.48;;;14.70;97.30;;;;;;5053876;28;20060;-83
2023/05/15 08:31:57;;;;;;;26.15;18.38;;;14.80;97.50;;;;;;5054018;28;20052;-85
2023/05/15 08:34:23;;;;;;;24.48;17.50;;;14.80;97.50;;;;;;5036276;28;20052;-84
2023/05/15 08:36:49;;;;;;;22.50;17.10;;;14.90;97.60;;;;;;5053165;28;20067;-85
2023/05/15 08:39:15;;;;;;;23.10;16.90;;;15.00;97.70;;;;;;5052847;28;20048;-82
2023/05/15 08:42:03;;;;;;;23.65;17.45;;;15.00;97.60;;;;;;5035997;28;20033;-82
2023/05/15 08:44:29;;;;;;;26.35;17.75;;;15.10;97.50;;;;;;5042499;28;20102;-84
2023/05/15 08:46:57;;;;;;;20.85;15.88;;;15.20;97.40;;;;;;5053233;28;20067;-83
2023/05/15 08:49:34;;;;;;;23.95;17.15;;;15.20;97.30;;;;;;5052408;28;20021;-86
2023/05/15 08:52:00;;;;;;;29.92;17.52;;;15.30;97.20;;;;;;5065285;28;20077;-93
2023/05/15 08:54:26;;;;;;;20.42;15.48;;;15.40;97.00;;;;;;5071695;28;20021;-92
2023/05/15 08:56:53;;;;;;;19.65;15.25;;;15.40;97.00;;;;;;5057536;28;20029;-90
2023/05/15 08:59:20;;;;;;;21.42;16.60;;;15.50;96.90;;;;;;5055147;28;20022;-90
2023/05/15 09:01:45;;;;;;;20.65;14.65;;;15.60;96.70;;;;;;5055572;28;20029;-88
2023/05/15 09:04:11;;;;;;;18.05;15.35;;;15.70;96.50;;;;;;5022264;28;20027;-91
2023/05/15 09:06:37;;;;;;;19.73;15.18;;;15.70;96.30;;;;;;5052377;28;20625;-89
2023/05/15 09:09:04;;;;;;;20.05;14.88;;;15.70;96.20;;;;;;5053280;28;20045;-90
2023/05/15 09:11:31;;;;;;;18.02;13.45;;;15.80;96.00;;;;;;5037825;28;20017;-93
2023/05/15 09:13:58;;;;;;;19.73;13.93;;;15.90;96.00;;;;;;5056098;28;20032;-94
2023/05/15 09:16:24;;;;;;;17.35;12.80;;;16.00;95.80;;;;;;5056179;28;20074;-91
2023/05/15 09:18:51;;;;;;;18.23;12.82;;;16.10;95.80;;;;;;5056255;28;20112;-93
2023/05/15 09:21:28;;;;;;;14.77;12.40;;;16.30;95.50;;;;;;5055010;28;20102;-96
2023/05/15 09:24:13;;;;;;;16.40;12.38;;;16.40;95.30;;;;;;5054335;28;20028;-94
2023/05/15 09:26:39;;;;;;;18.48;12.75;;;16.60;95.10;;;;;;5054701;28;20044;-96
2023/05/15 09:29:05;;;;;;;18.48;13.55;;;16.80;94.80;;;;;;5038166;28;20021;-93
2023/05/15 09:31:31;;;;;;;18.27;13.48;;;16.90;94.50;;;;;;5056147;28;20025;-93
2023/05/15 09:34:00;;;;;;;18.33;13.35;;;17.10;94.10;;;;;;5053951;28;20020;-93
2023/05/15 09:36:28;;;;;;;16.45;12.70;;;17.20;93.70;;;;;;5054785;28;20580;-92
2023/05/15 09:38:59;;;;;;;18.02;13.48;;;17.30;93.40;;;;;;5054652;28;20108;-93
2023/05/15 09:41:26;;;;;;;20.00;16.52;;;17.40;93.10;;;;;;5055884;28;20138;-93
2023/05/15 09:43:55;;;;;;;19.60;16.73;;;17.50;92.70;;;;;;5054688;28;20013;-94
2023/05/15 09:46:21;;;;;;;20.25;15.15;;;17.60;92.40;;;;;;5054369;28;20017;-92
2023/05/15 09:48:47;;;;;;;19.13;14.68;;;17.70;92.10;;;;;;5056631;28;20072;-94
2023/05/15 09:51:17;;;;;;;17.02;13.43;;;17.80;91.70;;;;;;5057744;28;20504;-96
2023/05/15 09:53:51;;;;;;;19.73;13.20;;;17.80;91.30;;;;;;5056880;28;20025;-93
2023/05/15 09:56:17;;;;;;;14.82;11.40;;;17.90;90.70;;;;;;5055561;28;20021;-96
2023/05/15 09:58:57;;;;;;;12.52;9.50;;;18.00;90.10;;;;;;5038727;28;20473;-92
2023/05/15 10:01:23;;;;;;;10.43;8.02;;;18.10;88.90;;;;;;5054095;28;20048;-89
2023/05/15 10:04:02;;;;;;;12.95;8.07;;;18.20;86.50;;;;;;5056880;28;20465;-94
2023/05/15 10:06:36;;;;;;;10.90;8.15;;;18.20;85.00;;;;;;5037595;28;20028;-94
2023/05/15 10:09:03;;;;;;;14.43;9.57;;;18.30;84.40;;;;;;5038401;28;20107;-95
2023/05/15 10:11:36;;;;;;;15.60;10.20;;;18.40;84.00;;;;;;5038591;28;20021;-94
2023/05/15 10:14:08;;;;;;;13.05;10.23;;;18.40;83.50;;;;;;5055441;28;20099;-92
2023/05/15 10:16:35;;;;;;;12.27;8.50;;;18.50;82.80;;;;;;5057133;28;20457;-92
2023/05/15 10:19:09;;;;;;;12.18;9.13;;;18.60;81.90;;;;;;5060646;28;20480;-92
2023/05/15 10:21:38;;;;;;;15.45;8.60;;;18.60;80.90;;;;;;5059410;28;20110;-92
2023/05/15 10:24:05;;;;;;;13.13;9.60;;;18.70;80.20;;;;;;5063087;28;20055;-93
2023/05/15 10:26:40;;;;;;;14.48;11.75;;;18.80;79.60;;;;;;5061404;28;20055;-95
2023/05/15 10:29:12;;;;;;;16.02;12.38;;;18.90;79.10;;;;;;5061878;28;20033;-94
2023/05/15 10:31:41;;;;;;;15.27;12.57;;;18.90;79.10;;;;;;5061611;28;20056;-93
2023/05/15 10:34:10;;;;;;;17.40;12.88;;;19.00;78.90;;;;;;5045088;28;20171;-95
2023/05/15 10:36:37;;;;;;;17.75;12.57;;;19.00;78.80;;;;;;5062320;28;20029;-95
2023/05/15 10:39:05;;;;;;;18.88;14.20;;;19.10;78.50;;;;;;5061547;28;20021;-94
2023/05/15 10:41:36;;;;;;;16.10;13.95;;;19.20;78.30;;;;;;5044680;28;20021;-92
2023/05/15 10:44:02;;;;;;;19.23;15.07;;;19.20;78.20;;;;;;5063606;28;20138;-90
2023/05/15 10:46:31;;;;;;;17.08;14.48;;;19.20;78.10;;;;;;5068117;28;20457;-95
2023/05/15 10:48:59;;;;;;;19.17;13.73;;;19.10;78.00;;;;;;5067876;28;20071;-91
2023/05/15 10:51:29;;;;;;;16.60;13.25;;;19.20;77.90;;;;;;5050488;28;20035;-92
2023/05/15 10:53:55;;;;;;;16.73;13.10;;;19.20;77.90;;;;;;5047686;28;20044;-91
2023/05/15 10:56:32;;;;;;;17.67;12.68;;;19.20;77.80;;;;;;5063960;28;20026;-93
2023/05/15 10:59:08;;;;;;;15.13;10.23;;;19.20;77.40;;;;;;5069119;28;20025;-90
2023/05/15 11:01:35;;;;;;;9.77;8.20;;;19.20;77.10;;;;;;5066945;28;20025;-91
2023/05/15 11:04:12;;;;;;;11.52;8.93;;;19.30;76.60;;;;;;5051215;28;20029;-90
2023/05/15 11:06:44;;;;;;;12.20;8.68;;;19.30;75.80;;;;;;5072711;28;20021;-91
2023/05/15 11:09:23;;;;;;;11.48;7.75;;;19.30;75.20;;;;;;5072465;28;20052;-91
2023/05/15 11:11:51;;;;;;;11.48;7.97;;;19.40;74.60;;;;;;5064653;28;20350;-91
2023/05/15 11:14:17;;;;;;;9.00;6.50;;;19.40;74.30;;;;;;5065719;28;20028;-92
2023/05/15 11:16:52;;;;;;;10.60;7.32;;;19.40;73.90;;;;;;5063834;28;20469;-92
2023/05/15 11:19:30;;;;;;;8.95;6.38;;;19.40;73.50;;;;;;5066807;28;20028;-93
2023/05/15 11:22:22;;;;;;;9.43;6.63;;;19.40;73.20;;;;;;5060833;28;20475;-91
2023/05/15 11:25:00;;;;;;;11.18;6.65;;;19.50;73.00;;;;;;5060986;28;20025;-91
2023/05/15 11:27:43;;;;;;;8.77;6.35;;;19.40;72.70;;;;;;5059925;28;20037;-90
2023/05/15 11:30:20;;;;;;;9.52;7.40;;;19.50;72.60;;;;;;5060507;28;20187;-92
2023/05/15 11:32:46;;;;;;;11.60;8.73;;;19.50;72.60;;;;;;5062169;28;20036;-91
2023/05/15 11:35:22;;;;;;;11.77;8.02;;;19.50;72.40;;;;;;5065808;28;20017;-94
2023/05/15 11:37:53;;;;;;;9.52;7.93;;;19.50;72.30;;;;;;5077830;28;20048;-93
2023/05/15 11:40:26;;;;;;;13.05;8.93;;;19.50;72.20;;;;;;5078248;28;20028;-94
2023/05/15 11:43:23;;;;;;;11.75;8.60;;;19.50;72.20;;;;;;5076243;28;20025;-92
2023/05/15 11:45:56;;;;;;;13.45;8.90;;;19.60;72.20;;;;;;5064322;28;20094;-92
2023/05/15 11:48:30;;;;;;;11.57;9.25;;;19.60;72.30;;;;;;5058928;28;20029;-95
2023/05/15 11:50:56;;;;;;;12.73;9.00;;;19.60;72.50;;;;;;5059047;28;20025;-92
2023/05/15 11:53:23;;;;;;;13.00;9.55;;;19.60;72.70;;;;;;5061687;28;20025;-94
2023/05/15 11:55:51;;;;;;;13.05;9.30;;;19.70;72.90;;;;;;5060220;28;20483;-96
2023/05/15 11:58:19;;;;;;;13.70;10.40;;;19.70;73.10;;;;;;5060794;28;20041;-91
2023/05/15 12:00:49;;;;;;;13.40;11.40;;;19.60;73.10;;;;;;5062111;28;20067;-93
2023/05/15 12:03:15;;;;;;;14.05;11.48;;;19.70;73.20;;;;;;5040706;28;20457;-92
2023/05/15 12:05:41;;;;;;;16.70;11.20;;;19.60;73.10;;;;;;5059861;28;20017;-93
2023/05/15 12:08:11;;;;;;;14.85;11.63;;;19.60;73.00;;;;;;5058734;28;20060;-94
2023/05/15 12:10:42;;;;;;;15.63;12.48;;;19.60;73.00;;;;;;5073374;28;20449;-90
2023/05/15 12:13:12;;;;;;;19.05;13.25;;;19.60;73.10;;;;;;5056556;28;20025;-89
2023/05/15 12:15:39;;;;;;;20.80;15.02;;;19.60;73.10;;;;;;5056462;28;20028;-92
2023/05/15 12:18:07;;;;;;;19.65;15.38;;;19.60;73.30;;;;;;5057718;28;20025;-92
2023/05/15 12:20:34;;;;;;;19.15;15.57;;;19.60;73.40;;;;;;5057003;28;20021;-92
2023/05/15 12:23:02;;;;;;;24.27;16.85;;;19.50;73.50;;;;;;5057833;28;20059;-93
2023/05/15 12:25:29;;;;;;;20.33;17.13;;;19.50;73.60;;;;;;5055909;28;20040;-92
2023/05/15 12:27:55;;;;;;;21.83;17.70;;;19.50;73.60;;;;;;5023670;28;20037;-84
2023/05/15 12:30:21;;;;;;;27.15;19.85;;;19.50;73.60;;;;;;5036080;28;20053;-90
2023/05/15 12:32:47;;;;;;;24.35;19.25;;;19.50;73.50;;;;;;5017752;28;20024;-92